Benton, KY

8:38 AM CDT on May 26, 2017 (GMT -0500)
Jason's House | | Change Station
Active Advisory: Lake Wind Advisory

Elev 456 ft 36.85 °N, 88.35 °W | Updated 1 second ago

Partly Cloudy
Partly Cloudy
70.6 °F
Feels Like 73 °F
N
8.0
Wind Variable Wind from SE
Gusts 11.0 mph

Today
High -- | Low -- °F
--% Chance of Precip.
Yesterday
High -- | Low -- °F
Precip. -- in
Pressure 29.89 in
Visibility 10.0 miles
Clouds Few 4600 ft
Heat Index 73 °F
Dew Point 62 °F
Humidity 75%
Rainfall 0.00 in
Snow Depth Not available.
5:38 AM 8:03 PM
New Moon, 1% visible
METAR KCEY 261315Z AUTO 18009G16KT 10SM FEW046 20/15 A2989 RMK AO1
Pressure 29.89 in
Visibility 10.0 miles
Clouds Few 4600 ft
Heat Index 73 °F
Dew Point 62 °F
Humidity 75%
Rainfall 0.00 in
Snow Depth Not available.
5:38 AM 8:03 PM
New Moon, 1% visible
METAR KCEY 261315Z AUTO 18009G16KT 10SM FEW046 20/15 A2989 RMK AO1

Get Your Daily Forecast Email!

Thanks for signing up!

Be on the lookout for a verification email in your inbox.

You'll start receiving severe weather alerts in your inbox..

×

10-Day Weather Forecast

Almanac

Astronomy

May. 26, 2017 Rise Set
Actual Time
Civil Twilight
Nautical Twilight
Astronomical Twilight
Moon
Length of Visible Light
Length of Day
Tomorrow will be .
, % of the Moon is Illuminated

Today's Extremes

State Highs State Lows

Community

WunderPhotos

Category 6

Welcome to Category 6. This is the collective home for Weather Underground's featured writeups by Dr. Jeff Masters (right), Bob Henson (left), Chris Burt, and other regular contributors.

Nearby

Air Quality

  Air Quality AQ Index Pollutant
Not available.

Snow Depth

Station Depth Elevation

Earthquake Activity

City Distance Mag. Time & Date
Minimum magnitude displayed is 2.5.

Coastal Water Temperatures

Place Temperature

Stations

Nearby Weather Stations

Station Location Temp. Windchill Dew Point Humidity Wind Precip. Elev Updated Type
                   

Watches & Warnings

Lake Wind Advisory
Issued: 3:43 AM CDT May. 26, 2017 – National Weather Service

... Lake Wind Advisory in effect from 10 am this morning to 6 PM
CDT this evening...

The National Weather Service in Paducah has issued a lake Wind
Advisory, which is in effect from 10 am this morning to 6 PM CDT
this evening.

* Timing... from late morning through the afternoon.

* Winds... south winds will be sustained from 15 to 20 mph with
gusts 20 to 30 mph.

* Impacts... winds are expected to be strong enough to cause
problems for boaters on area lakes. Small boats will be the most
significantly impacted. Boaters on Kentucky Lake, Lake Barkley,
and Rend Lake will be significantly impacted due to their
extensive south fetches.

Precautionary/preparedness actions...

A lake Wind Advisory indicates that winds will cause rough chop
on area lakes. Small boats will be especially prone to capsizing.



Drs